createdAt,value
2022-11-16T00:01:15.029Z,10.17
2022-11-16T00:03:19.675Z,10.16
2022-11-16T00:05:28.121Z,10.16
2022-11-16T00:07:33.322Z,10.17
2022-11-16T00:09:38.139Z,10.16
2022-11-16T00:11:43.209Z,10.12
2022-11-16T00:13:47.886Z,10.09
2022-11-16T00:15:59.806Z,10.08
2022-11-16T00:18:04.723Z,10.11
2022-11-16T00:20:11.314Z,10.12
2022-11-16T00:22:15.963Z,10.10
2022-11-16T00:24:22.091Z,10.11
2022-11-16T00:26:26.999Z,10.11
2022-11-16T00:28:32.327Z,10.12
2022-11-16T00:30:37.409Z,10.12
2022-11-16T00:32:42.242Z,10.13
2022-11-16T00:34:47.083Z,10.12
2022-11-16T00:36:52.022Z,10.13
2022-11-16T00:38:56.711Z,10.14
2022-11-16T00:41:01.400Z,10.18
2022-11-16T00:43:06.079Z,10.20
2022-11-16T00:45:11.782Z,10.21
2022-11-16T00:47:16.419Z,10.22
2022-11-16T00:49:21.030Z,10.19
2022-11-16T00:51:25.745Z,10.18
2022-11-16T00:53:30.607Z,10.16
2022-11-16T00:55:35.818Z,10.16
2022-11-16T00:57:40.946Z,10.18
2022-11-16T00:59:46.160Z,10.19
2022-11-16T01:01:50.883Z,10.18
2022-11-16T01:03:55.607Z,10.21
2022-11-16T01:06:03.605Z,10.24
2022-11-16T01:08:09.212Z,10.28
2022-11-16T01:10:18.454Z,10.30
2022-11-16T01:12:23.133Z,10.27
2022-11-16T01:14:27.763Z,10.26
2022-11-16T01:16:32.538Z,10.28
2022-11-16T01:18:37.144Z,10.30
2022-11-16T01:20:42.774Z,10.33
2022-11-16T01:22:47.923Z,10.35
2022-11-16T01:24:52.651Z,10.36
2022-11-16T01:26:57.385Z,10.34
2022-11-16T01:29:05.615Z,10.33
2022-11-16T01:31:14.267Z,10.31
2022-11-16T01:33:19.468Z,10.31
2022-11-16T01:35:24.322Z,10.30
2022-11-16T01:37:29.366Z,10.31
2022-11-16T01:39:33.978Z,10.33
2022-11-16T01:41:40.992Z,10.33
2022-11-16T01:43:55.035Z,10.32
2022-11-16T01:46:00.942Z,10.31
2022-11-16T01:48:08.273Z,10.29
2022-11-16T01:50:17.315Z,10.29
2022-11-16T01:52:27.078Z,10.30
2022-11-16T01:54:33.529Z,10.33
2022-11-16T01:56:39.583Z,10.36
2022-11-16T01:58:49.306Z,10.34
2022-11-16T02:00:59.362Z,10.31
2022-11-16T02:03:08.290Z,10.26
2022-11-16T02:05:22.485Z,10.20
2022-11-16T02:07:52.475Z,10.18
2022-11-16T02:10:17.213Z,10.15
2022-11-16T02:12:55.857Z,10.10
2022-11-16T02:15:20.482Z,10.10
2022-11-16T02:17:38.705Z,10.05
2022-11-16T02:20:10.228Z,10.00
2022-11-16T02:22:25.272Z,9.96
2022-11-16T02:24:44.685Z,9.96
2022-11-16T02:27:23.315Z,10.00
2022-11-16T02:29:32.609Z,10.05
2022-11-16T02:31:41.256Z,10.06
2022-11-16T02:33:50.291Z,10.04
2022-11-16T02:36:01.029Z,10.04
2022-11-16T02:38:11.091Z,10.02
2022-11-16T02:40:20.186Z,9.97
2022-11-16T02:42:29.814Z,9.96
2022-11-16T02:44:37.377Z,9.92
2022-11-16T02:46:47.147Z,9.89
2022-11-16T02:48:57.087Z,9.90
2022-11-16T02:51:02.303Z,9.93
2022-11-16T02:53:07.827Z,9.96
2022-11-16T02:55:13.512Z,9.97
2022-11-16T02:57:42.445Z,9.98
2022-11-16T02:59:52.872Z,9.95
2022-11-16T03:02:05.062Z,9.94
2022-11-16T03:04:14.289Z,9.92
2022-11-16T03:06:24.319Z,9.87
2022-11-16T03:08:32.753Z,9.80
2022-11-16T03:10:43.384Z,9.74
2022-11-16T03:12:48.789Z,9.72
2022-11-16T03:14:57.622Z,9.66
2022-11-16T03:17:05.537Z,9.61
2022-11-16T03:19:13.763Z,9.60
2022-11-16T03:21:24.645Z,9.61
2022-11-16T03:23:29.399Z,9.61
2022-11-16T03:25:40.754Z,9.66
2022-11-16T03:27:51.837Z,9.72
2022-11-16T03:30:05.109Z,9.77
2022-11-16T03:32:17.124Z,9.79
2022-11-16T03:34:27.180Z,9.84
2022-11-16T03:36:35.430Z,9.84
2022-11-16T03:38:42.679Z,9.83
2022-11-16T03:40:49.496Z,9.86
2022-11-16T03:42:55.164Z,9.90
2022-11-16T03:45:02.852Z,9.90
2022-11-16T03:47:08.327Z,9.88
2022-11-16T03:49:12.984Z,9.87
2022-11-16T03:51:18.008Z,9.86
2022-11-16T03:53:22.636Z,9.88
2022-11-16T03:55:27.292Z,9.90
2022-11-16T03:57:32.037Z,9.87
2022-11-16T03:59:36.960Z,9.85
2022-11-16T04:01:44.661Z,9.86
2022-11-16T04:03:50.036Z,9.88
2022-11-16T04:05:55.909Z,9.86
2022-11-16T04:08:00.667Z,9.83
2022-11-16T04:10:06.162Z,9.81
2022-11-16T04:12:11.116Z,9.81
2022-11-16T04:14:20.146Z,9.82
2022-11-16T04:16:24.794Z,9.85
2022-11-16T04:18:29.476Z,9.86
2022-11-16T04:20:34.108Z,9.84
2022-11-16T04:22:48.959Z,9.83
2022-11-16T04:24:58.360Z,9.80
2022-11-16T04:27:05.998Z,9.80
2022-11-16T04:29:11.657Z,9.81
2022-11-16T04:31:16.490Z,9.78
2022-11-16T04:33:28.860Z,9.76
2022-11-16T04:35:33.497Z,9.76
2022-11-16T04:37:38.461Z,9.74
2022-11-16T04:39:43.500Z,9.67
2022-11-16T04:41:48.133Z,9.62
2022-11-16T04:43:52.767Z,9.58
2022-11-16T04:45:57.356Z,9.57
2022-11-16T04:48:06.483Z,9.58
2022-11-16T04:50:12.078Z,9.62
2022-11-16T04:52:16.939Z,9.66
2022-11-16T04:54:21.653Z,9.67
2022-11-16T04:56:26.784Z,9.65
2022-11-16T04:58:31.699Z,9.68
2022-11-16T05:00:36.625Z,9.67
2022-11-16T05:02:41.770Z,9.63
2022-11-16T05:04:46.724Z,9.62
2022-11-16T05:06:51.590Z,9.63
2022-11-16T05:08:56.278Z,9.62
2022-11-16T05:11:00.920Z,9.66
2022-11-16T05:13:05.994Z,9.66
2022-11-16T05:15:11.443Z,9.63
2022-11-16T05:17:17.495Z,9.64
2022-11-16T05:19:22.206Z,9.67
2022-11-16T05:21:26.947Z,9.68
2022-11-16T05:23:31.565Z,9.67
2022-11-16T05:25:39.680Z,9.71
2022-11-16T05:27:47.029Z,9.74
2022-11-16T05:29:52.024Z,9.73
2022-11-16T05:31:58.864Z,9.67
2022-11-16T05:34:03.877Z,9.63
2022-11-16T05:36:09.927Z,9.67
2022-11-16T05:38:14.610Z,9.70
2022-11-16T05:40:20.981Z,9.73
2022-11-16T05:42:33.409Z,9.75
2022-11-16T05:44:38.945Z,9.78
2022-11-16T05:46:44.313Z,9.80
2022-11-16T05:48:49.308Z,9.79
2022-11-16T05:50:59.435Z,9.77
2022-11-16T05:53:04.268Z,9.73
2022-11-16T05:55:10.371Z,9.70
2022-11-16T05:57:19.606Z,9.71
2022-11-16T05:59:24.671Z,9.75
2022-11-16T06:01:31.847Z,9.77
2022-11-16T06:03:36.569Z,9.79
2022-11-16T06:05:41.564Z,9.83
2022-11-16T06:07:47.321Z,9.85
2022-11-16T06:09:52.203Z,9.86
2022-11-16T06:11:57.991Z,9.92
2022-11-16T06:14:02.630Z,9.94
2022-11-16T06:16:08.442Z,9.93
2022-11-16T06:18:13.272Z,9.92
2022-11-16T06:20:18.597Z,9.88
2022-11-16T06:22:23.399Z,9.86
2022-11-16T06:24:28.001Z,9.89
2022-11-16T06:26:32.850Z,9.88
2022-11-16T06:28:37.605Z,9.90
2022-11-16T06:30:42.356Z,9.92
2022-11-16T06:32:47.056Z,9.92
2022-11-16T06:34:52.368Z,9.91
2022-11-16T06:36:56.939Z,9.89
2022-11-16T06:39:02.254Z,9.87
2022-11-16T06:41:08.445Z,9.83
2022-11-16T06:43:17.339Z,9.83
2022-11-16T06:45:22.469Z,9.86
2022-11-16T06:47:29.241Z,9.88
2022-11-16T06:49:33.838Z,9.90
2022-11-16T06:51:39.834Z,9.91
2022-11-16T06:53:45.420Z,9.92
2022-11-16T06:55:51.068Z,9.92
2022-11-16T06:57:55.934Z,9.92
2022-11-16T07:00:00.607Z,9.96
2022-11-16T07:02:06.379Z,9.96
2022-11-16T07:04:11.389Z,9.96
2022-11-16T07:06:17.229Z,9.93
2022-11-16T07:08:22.978Z,9.91
2022-11-16T07:10:27.714Z,9.86
2022-11-16T07:12:32.430Z,9.84
2022-11-16T07:14:37.337Z,9.85
2022-11-16T07:16:42.647Z,9.86
2022-11-16T07:18:48.132Z,9.86
2022-11-16T07:20:52.872Z,9.89
2022-11-16T07:23:01.034Z,9.92
2022-11-16T07:25:07.877Z,9.95
2022-11-16T07:27:13.006Z,10.00
2022-11-16T07:29:19.702Z,10.02
2022-11-16T07:31:41.292Z,10.04
2022-11-16T07:34:00.684Z,10.05
2022-11-16T07:36:24.035Z,10.10
2022-11-16T07:38:29.372Z,10.15
2022-11-16T07:40:34.041Z,10.19
2022-11-16T07:42:39.047Z,10.22
2022-11-16T07:45:13.279Z,10.24
2022-11-16T07:47:23.285Z,10.20
2022-11-16T07:49:28.028Z,10.13
2022-11-16T07:51:36.947Z,10.06
2022-11-16T07:53:52.690Z,9.99
2022-11-16T07:55:57.712Z,9.92
2022-11-16T07:58:02.430Z,9.83
2022-11-16T08:00:09.372Z,9.78
2022-11-16T08:02:22.516Z,9.74
2022-11-16T08:04:27.888Z,9.73
2022-11-16T08:06:33.181Z,9.72
2022-11-16T08:08:37.929Z,9.70
2022-11-16T08:10:42.796Z,9.72
2022-11-16T08:12:47.915Z,9.73
2022-11-16T08:14:53.684Z,9.70
2022-11-16T08:16:58.492Z,9.66
2022-11-16T08:19:03.227Z,9.61
2022-11-16T08:21:10.574Z,9.54
2022-11-16T08:23:16.620Z,9.46
2022-11-16T08:25:21.381Z,9.41
2022-11-16T08:27:26.144Z,9.40
2022-11-16T08:29:32.405Z,9.42
2022-11-16T08:31:37.346Z,9.46
2022-11-16T08:33:48.842Z,9.45
2022-11-16T08:35:53.642Z,9.40
2022-11-16T08:37:58.405Z,9.38
2022-11-16T08:40:07.427Z,9.37
2022-11-16T08:42:14.915Z,9.36
2022-11-16T08:44:23.059Z,9.37
2022-11-16T08:46:30.341Z,9.35
2022-11-16T08:48:42.139Z,9.35
2022-11-16T08:51:15.496Z,9.37
2022-11-16T08:53:12.466Z,9.38
2022-11-16T08:55:17.507Z,9.40
2022-11-16T08:57:22.378Z,9.42
2022-11-16T08:59:30.982Z,9.37
2022-11-16T09:01:39.245Z,9.31
2022-11-16T09:03:44.606Z,9.28
2022-11-16T09:05:52.202Z,9.25
2022-11-16T09:07:57.075Z,9.21
2022-11-16T09:10:01.656Z,9.18
2022-11-16T09:12:06.734Z,9.13
2022-11-16T09:14:11.493Z,9.08
2022-11-16T09:16:16.944Z,9.07
2022-11-16T09:18:21.734Z,9.07
2022-11-16T09:20:26.346Z,9.07
2022-11-16T09:22:31.201Z,9.07
2022-11-16T09:24:35.885Z,9.08
2022-11-16T09:26:40.516Z,9.12
2022-11-16T09:28:45.592Z,9.15
2022-11-16T09:30:51.832Z,9.18
2022-11-16T09:32:57.869Z,9.20
2022-11-16T09:35:02.518Z,9.21
2022-11-16T09:37:07.103Z,9.22
2022-11-16T09:41:53.597Z,9.30
2022-11-16T09:44:06.645Z,9.34
2022-11-16T09:46:21.809Z,9.35
2022-11-16T09:48:27.713Z,9.34
2022-11-16T09:50:50.447Z,9.35
2022-11-16T09:53:00.256Z,9.33
2022-11-16T09:55:18.280Z,9.29
2022-11-16T09:57:28.711Z,9.31
2022-11-16T09:59:41.130Z,9.37
2022-11-16T10:01:50.293Z,9.37
2022-11-16T10:03:59.020Z,9.39
2022-11-16T10:06:05.890Z,9.39
2022-11-16T10:08:18.172Z,9.40
2022-11-16T10:10:34.683Z,9.40
2022-11-16T10:12:45.769Z,9.43
2022-11-16T10:15:13.877Z,9.46
2022-11-16T10:17:31.424Z,9.49
2022-11-16T10:19:45.935Z,9.53
2022-11-16T10:21:58.139Z,9.56
2022-11-16T10:24:23.990Z,9.60
2022-11-16T10:26:38.760Z,9.64
2022-11-16T10:29:02.061Z,9.68
2022-11-16T10:31:19.486Z,9.69
2022-11-16T10:33:28.239Z,9.69
2022-11-16T10:35:38.125Z,9.64
2022-11-16T10:37:48.520Z,9.65
2022-11-16T10:39:53.672Z,9.64
2022-11-16T10:42:07.416Z,9.67
2022-11-16T10:44:20.216Z,9.69
2022-11-16T10:46:29.131Z,9.69
2022-11-16T10:48:38.574Z,9.70
2022-11-16T10:50:46.998Z,9.75
2022-11-16T10:52:51.621Z,9.80
2022-11-16T10:54:56.252Z,9.85
2022-11-16T10:57:04.751Z,9.90
2022-11-16T10:59:10.983Z,9.94
2022-11-16T11:01:27.243Z,9.97
2022-11-16T11:03:33.408Z,9.98
2022-11-16T11:05:46.113Z,9.97
2022-11-16T11:08:00.157Z,9.95
2022-11-16T11:10:06.313Z,9.94
2022-11-16T11:12:17.665Z,9.92
2022-11-16T11:14:22.328Z,9.87
2022-11-16T11:16:27.203Z,9.83
2022-11-16T11:18:31.822Z,9.80
2022-11-16T11:20:43.182Z,9.79
2022-11-16T11:22:53.189Z,9.77
2022-11-16T11:24:58.043Z,9.72
2022-11-16T11:27:02.974Z,9.70
2022-11-16T11:29:22.369Z,9.69
2022-11-16T11:31:33.792Z,9.72
2022-11-16T11:33:42.108Z,9.73
2022-11-16T11:35:56.455Z,9.75
2022-11-16T11:38:07.678Z,9.75
2022-11-16T11:40:25.320Z,9.77
2022-11-16T11:42:30.092Z,9.78
2022-11-16T11:44:44.051Z,9.78
2022-11-16T11:47:50.528Z,9.79
2022-11-16T11:49:20.828Z,9.80
2022-11-16T11:51:31.481Z,9.79
2022-11-16T11:53:45.786Z,9.77
2022-11-16T11:55:54.877Z,9.74
2022-11-16T11:58:01.988Z,9.73
2022-11-16T12:00:08.738Z,9.75
2022-11-16T12:02:34.120Z,9.75
2022-11-16T12:05:20.445Z,9.75
2022-11-16T12:07:43.337Z,9.79
2022-11-16T12:09:56.197Z,9.79
2022-11-16T12:12:19.463Z,9.82
2022-11-16T12:14:40.657Z,9.84
2022-11-16T12:16:53.830Z,9.87
2022-11-16T12:19:21.284Z,9.87
2022-11-16T12:21:41.436Z,9.88
2022-11-16T12:24:02.857Z,9.88
2022-11-16T12:26:19.481Z,9.86
2022-11-16T12:28:41.449Z,9.87
2022-11-16T12:30:57.504Z,9.87
2022-11-16T12:33:23.734Z,9.85
2022-11-16T12:35:48.604Z,9.83
2022-11-16T12:38:02.132Z,9.78
2022-11-16T12:40:29.258Z,9.71
2022-11-16T12:42:41.821Z,9.62
2022-11-16T12:45:13.671Z,9.57
2022-11-16T12:47:26.181Z,9.47
2022-11-16T12:49:48.468Z,9.41
2022-11-16T12:52:06.894Z,9.39
2022-11-16T12:54:34.123Z,9.34
2022-11-16T12:56:49.805Z,9.30
2022-11-16T12:59:22.070Z,9.23
2022-11-16T13:01:35.646Z,9.20
2022-11-16T13:03:47.497Z,9.20
2022-11-16T13:05:57.256Z,9.18
2022-11-16T13:08:08.226Z,9.16
2022-11-16T13:10:17.586Z,9.18
2022-11-16T13:12:25.022Z,9.19
2022-11-16T13:14:33.507Z,9.20
2022-11-16T13:16:38.489Z,9.21
2022-11-16T13:18:44.076Z,9.19
2022-11-16T13:20:52.951Z,9.16
2022-11-16T13:23:02.922Z,9.14
2022-11-16T13:25:17.520Z,9.14
2022-11-16T13:27:32.029Z,9.14
2022-11-16T13:29:46.342Z,9.16
2022-11-16T13:31:59.995Z,9.19
2022-11-16T13:34:13.029Z,9.17
2022-11-16T13:36:41.178Z,9.17
2022-11-16T13:38:52.974Z,9.18
2022-11-16T13:41:31.435Z,9.21
2022-11-16T13:43:36.339Z,9.23
2022-11-16T13:45:44.445Z,9.24
2022-11-16T13:47:54.544Z,9.25
2022-11-16T13:50:01.213Z,9.28
2022-11-16T13:52:28.624Z,9.29
2022-11-16T13:54:45.214Z,9.34
2022-11-16T13:56:52.261Z,9.37
2022-11-16T13:58:57.472Z,9.37
2022-11-16T14:01:05.418Z,9.38
2022-11-16T14:03:34.684Z,9.41
2022-11-16T14:05:42.221Z,9.42
2022-11-16T14:07:47.760Z,9.43
2022-11-16T14:09:52.441Z,9.45
2022-11-16T14:11:57.088Z,9.46
2022-11-16T14:14:02.427Z,9.47
2022-11-16T14:16:54.977Z,9.48
2022-11-16T14:19:01.684Z,9.49
2022-11-16T14:21:21.959Z,9.48
2022-11-16T14:23:38.450Z,9.49
2022-11-16T14:25:50.357Z,9.50
2022-11-16T14:28:08.040Z,9.50
2022-11-16T14:30:19.778Z,9.50
2022-11-16T14:32:27.135Z,9.48
2022-11-16T14:34:41.116Z,9.49
2022-11-16T14:36:47.869Z,9.48
2022-11-16T14:38:52.626Z,9.46
2022-11-16T14:41:04.577Z,9.43
2022-11-16T14:43:17.516Z,9.43
2022-11-16T14:45:25.337Z,9.41
2022-11-16T14:47:32.164Z,9.41
2022-11-16T14:49:46.692Z,9.41
2022-11-16T14:51:53.856Z,9.43
2022-11-16T14:54:01.844Z,9.46
2022-11-16T14:56:11.959Z,9.48
2022-11-16T14:58:21.158Z,9.48
2022-11-16T15:00:26.608Z,9.49
2022-11-16T15:02:32.039Z,9.50
2022-11-16T15:04:38.765Z,9.50
2022-11-16T15:06:48.535Z,9.50
2022-11-16T15:08:57.962Z,9.51
2022-11-16T15:11:03.064Z,9.51
2022-11-16T15:13:07.790Z,9.52
2022-11-16T15:15:18.468Z,9.53
2022-11-16T15:17:31.716Z,9.52
2022-11-16T15:19:37.964Z,9.53
2022-11-16T15:21:52.197Z,9.54
2022-11-16T15:26:23.744Z,9.51
2022-11-16T15:28:30.572Z,9.51
2022-11-16T15:30:36.689Z,9.50
2022-11-16T15:32:44.367Z,9.47
2022-11-16T15:34:53.704Z,9.46
2022-11-16T15:36:58.377Z,9.43
2022-11-16T15:39:04.941Z,9.40
2022-11-16T15:41:10.530Z,9.39
2022-11-16T15:43:15.999Z,9.37
2022-11-16T15:45:24.224Z,9.37
2022-11-16T15:47:29.959Z,9.35
2022-11-16T15:49:39.042Z,9.36
2022-11-16T15:51:46.433Z,9.37
2022-11-16T15:53:52.473Z,9.38
2022-11-16T15:55:57.208Z,9.38
2022-11-16T15:58:11.720Z,9.36
2022-11-16T16:00:26.887Z,9.35
2022-11-16T16:02:32.600Z,9.34
2022-11-16T16:04:43.026Z,9.34
2022-11-16T16:06:50.255Z,9.31
2022-11-16T16:09:06.570Z,9.29
2022-11-16T16:11:27.040Z,9.26
2022-11-16T16:13:35.147Z,9.25
2022-11-16T16:15:43.904Z,9.24
2022-11-16T16:17:48.874Z,9.21
2022-11-16T16:19:57.959Z,9.19
2022-11-16T16:22:03.814Z,9.18
2022-11-16T16:24:10.101Z,9.16
2022-11-16T16:26:15.182Z,9.14
2022-11-16T16:28:19.885Z,9.12
2022-11-16T16:30:25.149Z,9.10
2022-11-16T16:32:34.136Z,9.06
2022-11-16T16:34:42.145Z,9.05
2022-11-16T16:36:47.426Z,9.04
2022-11-16T16:38:52.131Z,9.02
2022-11-16T16:41:01.430Z,9.03
2022-11-16T16:43:06.190Z,9.03
2022-11-16T16:45:16.887Z,9.04
2022-11-16T16:47:21.713Z,9.04
2022-11-16T16:49:26.708Z,9.05
2022-11-16T16:51:31.800Z,9.04
2022-11-16T16:53:37.729Z,9.04
2022-11-16T16:55:44.098Z,9.05
2022-11-16T16:57:49.375Z,9.06
2022-11-16T16:59:54.838Z,9.08
2022-11-16T17:02:01.344Z,9.08
2022-11-16T17:04:06.594Z,9.05
2022-11-16T17:06:12.686Z,9.04
2022-11-16T17:08:17.726Z,9.04
2022-11-16T17:10:24.266Z,9.03
2022-11-16T17:12:30.104Z,9.04
2022-11-16T17:14:35.554Z,9.05
2022-11-16T17:16:41.765Z,9.07
2022-11-16T17:18:47.315Z,9.10
2022-11-16T17:20:54.031Z,9.13
2022-11-16T17:23:00.009Z,9.14
2022-11-16T17:25:06.811Z,9.15
2022-11-16T17:27:12.824Z,9.13
2022-11-16T17:29:23.590Z,9.13
2022-11-16T17:31:29.363Z,9.13
2022-11-16T17:33:38.443Z,9.13
2022-11-16T17:35:44.135Z,9.13
2022-11-16T17:37:49.489Z,9.14
2022-11-16T17:39:55.177Z,9.14
2022-11-16T17:42:01.364Z,9.14
2022-11-16T17:44:07.349Z,9.14
2022-11-16T17:46:15.650Z,9.14
2022-11-16T17:48:21.917Z,9.17
2022-11-16T17:50:28.648Z,9.20
2022-11-16T17:52:34.404Z,9.23
2022-11-16T17:54:40.722Z,9.24
2022-11-16T17:56:47.857Z,9.25
2022-11-16T17:58:57.094Z,9.25
2022-11-16T18:01:02.881Z,9.27
2022-11-16T18:03:11.598Z,9.28
2022-11-16T18:05:17.721Z,9.28
2022-11-16T18:07:24.124Z,9.30
2022-11-16T18:09:30.938Z,9.31
2022-11-16T18:11:37.889Z,9.30
2022-11-16T18:13:46.008Z,9.28
2022-11-16T18:15:53.476Z,9.28
2022-11-16T18:17:59.359Z,9.27
2022-11-16T18:20:08.411Z,9.28
2022-11-16T18:22:15.046Z,9.26
2022-11-16T18:24:20.833Z,9.26
2022-11-16T18:26:29.203Z,9.27
2022-11-16T18:28:38.479Z,9.28
2022-11-16T18:30:45.293Z,9.30
2022-11-16T18:32:53.702Z,9.30
2022-11-16T18:35:00.467Z,9.32
2022-11-16T18:37:07.506Z,9.32
2022-11-16T18:39:14.822Z,9.32
2022-11-16T18:41:24.137Z,9.32
2022-11-16T18:43:30.784Z,9.33
2022-11-16T18:45:36.933Z,9.31
2022-11-16T18:47:42.265Z,9.29
2022-11-16T18:49:48.006Z,9.27
2022-11-16T18:51:54.645Z,9.26
2022-11-16T18:54:00.890Z,9.27
2022-11-16T18:56:09.369Z,9.26
2022-11-16T18:58:35.862Z,9.27
2022-11-16T19:00:42.596Z,9.25
2022-11-16T19:02:48.672Z,9.22
2022-11-16T19:04:57.739Z,9.21
2022-11-16T19:07:03.643Z,9.22
2022-11-16T19:09:16.019Z,9.19
2022-11-16T19:11:21.480Z,9.19
2022-11-16T19:13:28.084Z,9.16
2022-11-16T19:15:35.233Z,9.14
2022-11-16T19:18:06.730Z,9.13
2022-11-16T19:20:14.740Z,9.14
2022-11-16T19:22:23.715Z,9.14
2022-11-16T19:24:31.701Z,9.15
2022-11-16T19:26:40.020Z,9.17
2022-11-16T19:28:47.581Z,9.17
2022-11-16T19:30:56.865Z,9.17
2022-11-16T19:33:06.179Z,9.18
2022-11-16T19:35:12.250Z,9.20
2022-11-16T19:37:18.537Z,9.20
2022-11-16T19:39:25.153Z,9.20
2022-11-16T19:41:31.016Z,9.17
2022-11-16T19:43:37.222Z,9.16
2022-11-16T19:45:45.986Z,9.16
2022-11-16T19:47:58.736Z,9.19
2022-11-16T19:50:05.011Z,9.20
2022-11-16T19:52:11.386Z,9.21
2022-11-16T19:54:17.941Z,9.21
2022-11-16T19:56:28.016Z,9.21
2022-11-16T19:58:37.105Z,9.21
2022-11-16T20:00:46.768Z,9.21
2022-11-16T20:02:57.676Z,9.22
2022-11-16T20:05:04.015Z,9.21
2022-11-16T20:07:15.190Z,9.21
2022-11-16T20:09:23.703Z,9.21
2022-11-16T20:11:31.946Z,9.22
2022-11-16T20:13:38.280Z,9.22
2022-11-16T20:15:45.279Z,9.22
2022-11-16T20:17:52.197Z,9.23
2022-11-16T20:19:58.078Z,9.24
2022-11-16T20:22:04.519Z,9.22
2022-11-16T20:24:13.590Z,9.21
2022-11-16T20:26:21.268Z,9.22
2022-11-16T20:28:28.834Z,9.22
2022-11-16T20:30:37.108Z,9.20
2022-11-16T20:32:46.839Z,9.19
2022-11-16T20:34:52.684Z,9.19
2022-11-16T20:36:59.092Z,9.19
2022-11-16T20:39:07.585Z,9.19
2022-11-16T20:41:15.456Z,9.20
2022-11-16T20:43:21.701Z,9.21
2022-11-16T20:45:27.147Z,9.22
2022-11-16T20:47:33.535Z,9.24
2022-11-16T20:49:39.434Z,9.23
2022-11-16T20:51:45.374Z,9.22
2022-11-16T20:53:51.907Z,9.22
2022-11-16T20:55:57.540Z,9.23
2022-11-16T20:58:03.876Z,9.25
2022-11-16T21:00:13.565Z,9.27
2022-11-16T21:02:18.560Z,9.29
2022-11-16T21:04:23.882Z,9.31
2022-11-16T21:06:29.732Z,9.33
2022-11-16T21:08:35.628Z,9.34
2022-11-16T21:10:41.405Z,9.33
2022-11-16T21:12:46.475Z,9.38
2022-11-16T21:14:51.553Z,9.42
2022-11-16T21:16:56.243Z,9.44
2022-11-16T21:19:04.211Z,9.43
2022-11-16T21:21:11.005Z,9.42
2022-11-16T21:23:16.648Z,9.40
2022-11-16T21:25:21.636Z,9.39
2022-11-16T21:27:26.811Z,9.38
2022-11-16T21:29:31.842Z,9.37
2022-11-16T21:31:37.453Z,9.36
2022-11-16T21:33:52.275Z,9.34
2022-11-16T21:35:57.520Z,9.34
2022-11-16T21:38:02.705Z,9.35
2022-11-16T21:40:09.553Z,9.36
2022-11-16T21:42:14.610Z,9.36
2022-11-16T21:44:19.248Z,9.37
2022-11-16T21:46:26.389Z,9.40
2022-11-16T21:48:32.977Z,9.41
2022-11-16T21:50:38.586Z,9.41
2022-11-16T21:52:44.220Z,9.40
2022-11-16T21:54:48.859Z,9.42
2022-11-16T21:56:57.912Z,9.45
2022-11-16T21:59:02.680Z,9.44
2022-11-16T22:01:11.458Z,9.41
2022-11-16T22:03:19.247Z,9.39
2022-11-16T22:05:24.167Z,9.40
2022-11-16T22:07:29.138Z,9.39
2022-11-16T22:09:33.784Z,9.39
2022-11-16T22:11:40.731Z,9.40
2022-11-16T22:13:48.535Z,9.38
2022-11-16T22:15:55.870Z,9.38
2022-11-16T22:18:01.066Z,9.37
2022-11-16T22:20:06.961Z,9.36
2022-11-16T22:22:13.044Z,9.36
2022-11-16T22:24:17.886Z,9.36
2022-11-16T22:26:22.619Z,9.38
2022-11-16T22:28:27.279Z,9.39
2022-11-16T22:30:31.988Z,9.39
2022-11-16T22:32:36.611Z,9.39
2022-11-16T22:34:41.268Z,9.38
2022-11-16T22:36:45.846Z,9.36
2022-11-16T22:38:50.518Z,9.34
2022-11-16T22:40:56.408Z,9.33
2022-11-16T22:43:01.323Z,9.31
2022-11-16T22:45:07.239Z,9.29
2022-11-16T22:47:11.911Z,9.29
2022-11-16T22:49:16.506Z,9.29
2022-11-16T22:51:23.317Z,9.29
2022-11-16T22:53:27.910Z,9.32
2022-11-16T22:55:36.581Z,9.36
2022-11-16T22:57:41.212Z,9.39
2022-11-16T22:59:45.782Z,9.41
2022-11-16T23:01:50.480Z,9.42
2022-11-16T23:03:55.586Z,9.42
2022-11-16T23:06:00.265Z,9.44
2022-11-16T23:08:05.073Z,9.46
2022-11-16T23:10:11.012Z,9.45
2022-11-16T23:12:15.674Z,9.44
2022-11-16T23:14:20.433Z,9.43
2022-11-16T23:16:25.058Z,9.42
2022-11-16T23:18:29.802Z,9.44
2022-11-16T23:20:37.175Z,9.44
2022-11-16T23:22:41.769Z,9.41
2022-11-16T23:24:46.734Z,9.37
2022-11-16T23:26:51.499Z,9.34
2022-11-16T23:28:56.225Z,9.31
2022-11-16T23:31:00.843Z,9.29
2022-11-16T23:33:05.939Z,9.29
2022-11-16T23:35:11.766Z,9.31
2022-11-16T23:37:16.398Z,9.32
2022-11-16T23:39:21.090Z,9.29
2022-11-16T23:41:25.758Z,9.29
2022-11-16T23:43:30.384Z,9.31
2022-11-16T23:45:34.976Z,9.31
2022-11-16T23:47:39.613Z,9.32
2022-11-16T23:49:47.092Z,9.32
2022-11-16T23:51:51.682Z,9.33
2022-11-16T23:53:56.617Z,9.33
2022-11-16T23:56:06.221Z,9.32
2022-11-16T23:58:13.921Z,9.32
